<?xml version='1.0' encoding='UTF-8'?><gpx version="1.1" creator="JPX - https://github.com/jenetics/jpx" xmlns="http://www.topografix.com/GPX/1/1"><trk><trkseg><trkpt lat="44.73445264135672" lon="7.978632706104331"><ele>200.0</ele><time>2026-04-04T15:13:02Z</time></trkpt><trkpt lat="44.73446446488259" lon="7.97874505004759"><ele>200.0</ele><time>2026-04-04T15:13:04Z</time></trkpt><trkpt lat="44.73449752370466" lon="7.978887924294652"><ele>200.0</ele><time>2026-04-04T15:13:06Z</time></trkpt><trkpt lat="44.734602000365285" lon="7.978856224728971"><ele>200.0</ele><time>2026-04-04T15:13:08Z</time></trkpt><trkpt lat="44.73464670228955" lon="7.9787021758810805"><ele>200.0</ele><time>2026-04-04T15:13:10Z</time></trkpt><trkpt lat="44.734633757573704" lon="7.978583146817114"><ele>200.00000000000003</ele><time>2026-04-04T15:13:11Z</time></trkpt><trkpt lat="44.73460111966792" lon="7.978484360733828"><ele>200.0</ele><time>2026-04-04T15:13:12Z</time></trkpt><trkpt lat="44.73449816115538" lon="7.97844977287536"><ele>200.0</ele><time>2026-04-04T15:13:14Z</time></trkpt><trkpt lat="44.73444024559568" lon="7.9783574064607645"><ele>200.0</ele><time>2026-04-04T15:13:17Z</time></trkpt><trkpt lat="44.734448503305096" lon="7.978242438513593"><ele>200.00000000000003</ele><time>2026-04-04T15:13:18Z</time></trkpt><trkpt lat="44.73445348819925" lon="7.978121382155335"><ele>200.0</ele><time>2026-04-04T15:13:19Z</time></trkpt><trkpt lat="44.73444788916579" lon="7.978019745563131"><ele>199.8</ele><time>2026-04-04T15:13:20Z</time></trkpt><trkpt lat="44.73441826574409" lon="7.977918077552947"><ele>199.6</ele><time>2026-04-04T15:13:22Z</time></trkpt><trkpt lat="44.734323929713085" lon="7.977952228731089"><ele>199.39999999999998</ele><time>2026-04-04T15:13:26Z</time></trkpt><trkpt lat="44.73426665383187" lon="7.978033766291534"><ele>199.2</ele><time>2026-04-04T15:13:27Z</time></trkpt><trkpt lat="44.73421044940564" lon="7.978147039632107"><ele>199.0</ele><time>2026-04-04T15:13:28Z</time></trkpt><trkpt lat="44.73415162153481" lon="7.978261915036809"><ele>198.6</ele><time>2026-04-04T15:13:29Z</time></trkpt><trkpt lat="44.73409087824147" lon="7.978392406299272"><ele>198.2</ele><time>2026-04-04T15:13:30Z</time></trkpt><trkpt lat="44.73403210160894" lon="7.978513546075985"><ele>197.79999999999998</ele><time>2026-04-04T15:13:31Z</time></trkpt><trkpt lat="44.73398465301855" lon="7.9786173686664155"><ele>197.39999999999998</ele><time>2026-04-04T15:13:32Z</time></trkpt><trkpt lat="44.73394596496516" lon="7.978717546997539"><ele>197.0</ele><time>2026-04-04T15:13:33Z</time></trkpt><trkpt lat="44.733908111401234" lon="7.978794844123305"><ele>197.00000000000003</ele><time>2026-04-04T15:13:34Z</time></trkpt><trkpt lat="44.7338700597781" lon="7.978922192477407"><ele>197.0</ele><time>2026-04-04T15:13:35.998Z</time></trkpt><trkpt lat="44.733930263806606" lon="7.979033262606119"><ele>197.0</ele><time>2026-04-04T15:13:37.998Z</time></trkpt><trkpt lat="44.734007209892496" lon="7.979043392732369"><ele>197.0</ele><time>2026-04-04T15:13:38.998Z</time></trkpt><trkpt lat="44.73408703239019" lon="7.979045827461834"><ele>197.00000000000003</ele><time>2026-04-04T15:13:39.998Z</time></trkpt><trkpt lat="44.73417645797388" lon="7.979038074765038"><ele>197.0</ele><time>2026-04-04T15:13:40.998Z</time></trkpt><trkpt lat="44.734271579947126" lon="7.979028813036496"><ele>197.0</ele><time>2026-04-04T15:13:41.998Z</time></trkpt><trkpt lat="44.73437224748331" lon="7.979020441722644"><ele>197.0</ele><time>2026-04-04T15:13:42.998Z</time></trkpt><trkpt lat="44.734469898545164" lon="7.979007713898696"><ele>197.0</ele><time>2026-04-04T15:13:43.998Z</time></trkpt><trkpt lat="44.734567838488786" lon="7.979001504175955"><ele>197.0</ele><time>2026-04-04T15:13:44.998Z</time></trkpt><trkpt lat="44.734673113882515" lon="7.978996551863064"><ele>197.0</ele><time>2026-04-04T15:13:45.998Z</time></trkpt><trkpt lat="44.73477807178188" lon="7.978990343224503"><ele>197.50000000000003</ele><time>2026-04-04T15:13:46.998Z</time></trkpt><trkpt lat="44.73488350224019" lon="7.978987697425178"><ele>198.0</ele><time>2026-04-04T15:13:47.998Z</time></trkpt><trkpt lat="44.73498139915757" lon="7.978980563408251"><ele>198.5</ele><time>2026-04-04T15:13:48.998Z</time></trkpt><trkpt lat="44.735066359212006" lon="7.9789789739182595"><ele>199.0</ele><time>2026-04-04T15:13:49.998Z</time></trkpt><trkpt lat="44.73514180856066" lon="7.978974070249571"><ele>199.50000000000003</ele><time>2026-04-04T15:13:50.998Z</time></trkpt><trkpt lat="44.73520497015373" lon="7.978970887072804"><ele>200.0</ele><time>2026-04-04T15:13:51.999Z</time></trkpt><trkpt lat="44.73529995020709" lon="7.9790675178376675"><ele>200.2</ele><time>2026-04-04T15:13:53.999Z</time></trkpt><trkpt lat="44.73533012161543" lon="7.97916755330679"><ele>200.4</ele><time>2026-04-04T15:13:54.999Z</time></trkpt><trkpt lat="44.73536304596927" lon="7.979285487255668"><ele>200.60000000000002</ele><time>2026-04-04T15:13:55.999Z</time></trkpt><trkpt lat="44.73540078087388" lon="7.979404212462837"><ele>200.8</ele><time>2026-04-04T15:13:56.999Z</time></trkpt><trkpt lat="44.73544641433677" lon="7.979527002524755"><ele>201.0</ele><time>2026-04-04T15:13:57.999Z</time></trkpt><trkpt lat="44.735498056112284" lon="7.9796541814700435"><ele>201.20000000000002</ele><time>2026-04-04T15:13:58.999Z</time></trkpt><trkpt lat="44.73554845058438" lon="7.97978397872169"><ele>201.4</ele><time>2026-04-04T15:13:59.999Z</time></trkpt><trkpt lat="44.73559653223305" lon="7.9799195490846095"><ele>201.6</ele><time>2026-04-04T15:14:00.999Z</time></trkpt><trkpt lat="44.73564564166138" lon="7.980048607506134"><ele>201.8</ele><time>2026-04-04T15:14:01.999Z</time></trkpt><trkpt lat="44.73569304718089" lon="7.980168459627863"><ele>202.0</ele><time>2026-04-04T15:14:02.999Z</time></trkpt><trkpt lat="44.73574133850335" lon="7.980286700138818"><ele>202.2</ele><time>2026-04-04T15:14:03.999Z</time></trkpt><trkpt lat="44.73579139985714" lon="7.9803934211008425"><ele>202.39999999999998</ele><time>2026-04-04T15:14:04.999Z</time></trkpt><trkpt lat="44.73585094187735" lon="7.980506970245221"><ele>202.60000000000002</ele><time>2026-04-04T15:14:05.999Z</time></trkpt><trkpt lat="44.73593430406583" lon="7.980636141072649"><ele>202.8</ele><time>2026-04-04T15:14:06.999Z</time></trkpt><trkpt lat="44.736030797617616" lon="7.980761182838496"><ele>203.0</ele><time>2026-04-04T15:14:07.999Z</time></trkpt><trkpt lat="44.73612926074313" lon="7.980867709881482"><ele>204.25</ele><time>2026-04-04T15:14:08.999Z</time></trkpt><trkpt lat="44.736231801329126" lon="7.98096474290622"><ele>205.5</ele><time>2026-04-04T15:14:09.999Z</time></trkpt><trkpt lat="44.736332888785135" lon="7.981058107932393"><ele>206.75</ele><time>2026-04-04T15:14:10.999Z</time></trkpt><trkpt lat="44.73643487510305" lon="7.981149292305171"><ele>208.0</ele><time>2026-04-04T15:14:11.999Z</time></trkpt><trkpt lat="44.7365362317103" lon="7.981241196634337"><ele>208.0</ele><time>2026-04-04T15:14:12.999Z</time></trkpt><trkpt lat="44.73663604782165" lon="7.98133145593822"><ele>208.0</ele><time>2026-04-04T15:14:13.999Z</time></trkpt><trkpt lat="44.73673732656883" lon="7.981413398440622"><ele>208.0</ele><time>2026-04-04T15:14:14.999Z</time></trkpt><trkpt lat="44.736839314830846" lon="7.981490141576938"><ele>208.0</ele><time>2026-04-04T15:14:15.999Z</time></trkpt><trkpt lat="44.73694830932142" lon="7.981564568963708"><ele>209.5</ele><time>2026-04-04T15:14:16.999Z</time></trkpt><trkpt lat="44.73706207724472" lon="7.98163500399491"><ele>211.0</ele><time>2026-04-04T15:14:17.999Z</time></trkpt><trkpt lat="44.73717851159425" lon="7.981697858688715"><ele>212.5</ele><time>2026-04-04T15:14:18.999Z</time></trkpt><trkpt lat="44.73729591320715" lon="7.9817625093207685"><ele>214.0</ele><time>2026-04-04T15:14:19.999Z</time></trkpt><trkpt lat="44.73740942952241" lon="7.981829920405722"><ele>215.5</ele><time>2026-04-04T15:14:20.999Z</time></trkpt><trkpt lat="44.73752200975766" lon="7.981898992470135"><ele>217.0</ele><time>2026-04-04T15:14:21.999Z</time></trkpt><trkpt lat="44.73763331805709" lon="7.98196553395525"><ele>218.5</ele><time>2026-04-04T15:14:22.999Z</time></trkpt><trkpt lat="44.737744136589846" lon="7.9820315224518295"><ele>220.0</ele><time>2026-04-04T15:14:23.999Z</time></trkpt><trkpt lat="44.73785250009935" lon="7.982097645668906"><ele>220.4</ele><time>2026-04-04T15:14:24.999Z</time></trkpt><trkpt lat="44.737951270394696" lon="7.982158770735697"><ele>220.8</ele><time>2026-04-04T15:14:25.999Z</time></trkpt><trkpt lat="44.73803358024497" lon="7.98221080101855"><ele>221.2</ele><time>2026-04-04T15:14:26.999Z</time></trkpt><trkpt lat="44.73811254458861" lon="7.98225763009149"><ele>221.6</ele><time>2026-04-04T15:14:27.999Z</time></trkpt><trkpt lat="44.73820657267364" lon="7.982307409802004"><ele>222.0</ele><time>2026-04-04T15:14:28.999Z</time></trkpt><trkpt lat="44.73830897140971" lon="7.982365119164195"><ele>222.0</ele><time>2026-04-04T15:14:29.999Z</time></trkpt><trkpt lat="44.73841981303123" lon="7.982441351087805"><ele>222.0</ele><time>2026-04-04T15:14:30.999Z</time></trkpt><trkpt lat="44.73853411813263" lon="7.982564414071201"><ele>222.0</ele><time>2026-04-04T15:14:31.999Z</time></trkpt><trkpt lat="44.73863370233413" lon="7.98272101987106"><ele>222.0</ele><time>2026-04-04T15:14:32.999Z</time></trkpt><trkpt lat="44.7387083060369" lon="7.982893351265687"><ele>222.75</ele><time>2026-04-04T15:14:33.999Z</time></trkpt><trkpt lat="44.73876076435029" lon="7.983065378476582"><ele>223.5</ele><time>2026-04-04T15:14:34.999Z</time></trkpt><trkpt lat="44.738800483641356" lon="7.983231740411719"><ele>224.25</ele><time>2026-04-04T15:14:35.999Z</time></trkpt><trkpt lat="44.738842232686274" lon="7.983394669722656"><ele>225.0</ele><time>2026-04-04T15:14:36.999Z</time></trkpt><trkpt lat="44.738886309975285" lon="7.983557556249869"><ele>223.75</ele><time>2026-04-04T15:14:37.999Z</time></trkpt><trkpt lat="44.73893460104953" lon="7.9837269464686464"><ele>222.5</ele><time>2026-04-04T15:14:38.999Z</time></trkpt><trkpt lat="44.73898372590663" lon="7.983901570412766"><ele>221.25</ele><time>2026-04-04T15:14:39.999Z</time></trkpt><trkpt lat="44.739035321722916" lon="7.9840823986230705"><ele>220.0</ele><time>2026-04-04T15:14:40.999Z</time></trkpt><trkpt lat="44.73908940165501" lon="7.984261594876403"><ele>220.0</ele><time>2026-04-04T15:14:41.999Z</time></trkpt><trkpt lat="44.73914650317777" lon="7.984445687289501"><ele>220.0</ele><time>2026-04-04T15:14:42.999Z</time></trkpt><trkpt lat="44.739203578498206" lon="7.984632711698143"><ele>220.0</ele><time>2026-04-04T15:14:43.999Z</time></trkpt><trkpt lat="44.73926031249797" lon="7.98483574095997"><ele>220.0</ele><time>2026-04-04T15:14:44.999Z</time></trkpt><trkpt lat="44.7393156515311" lon="7.98505477949814"><ele>219.66666666666666</ele><time>2026-04-04T15:14:45.999Z</time></trkpt><trkpt lat="44.739372823650285" lon="7.985274260192087"><ele>219.33333333333331</ele><time>2026-04-04T15:14:46.999Z</time></trkpt><trkpt lat="44.739429369285055" lon="7.9854782512026325"><ele>219.0</ele><time>2026-04-04T15:14:47.999Z</time></trkpt><trkpt lat="44.73948019821942" lon="7.9856624694885285"><ele>218.6</ele><time>2026-04-04T15:14:48.999Z</time></trkpt><trkpt lat="44.739527537711254" lon="7.9858300034508725"><ele>218.2</ele><time>2026-04-04T15:14:49.999Z</time></trkpt><trkpt lat="44.73956630822314" lon="7.985969650716738"><ele>217.79999999999998</ele><time>2026-04-04T15:14:50.999Z</time></trkpt><trkpt lat="44.73959370852114" lon="7.986081401394531"><ele>217.39999999999998</ele><time>2026-04-04T15:14:51.999Z</time></trkpt><trkpt lat="44.739618732148536" lon="7.986181634991489"><ele>217.0</ele><time>2026-04-04T15:14:52.999Z</time></trkpt><trkpt lat="44.739632913873706" lon="7.98631019727616"><ele>217.0</ele><time>2026-04-04T15:14:54.999Z</time></trkpt><trkpt lat="44.73963518405787" lon="7.9864154876354965"><ele>217.0</ele><time>2026-04-04T15:14:56.999Z</time></trkpt><trkpt lat="44.739478051312986" lon="7.986660407589312"><ele>217.0</ele><time>2026-04-04T15:15:00Z</time></trkpt><trkpt lat="44.739432862142095" lon="7.986775740809315"><ele>217.0</ele><time>2026-04-04T15:15:01Z</time></trkpt><trkpt lat="44.73938278356996" lon="7.986902204564704"><ele>216.0</ele><time>2026-04-04T15:15:02Z</time></trkpt><trkpt lat="44.739336953383024" lon="7.98702687982904"><ele>215.0</ele><time>2026-04-04T15:15:03Z</time></trkpt><trkpt lat="44.73928722035024" lon="7.987161520036275"><ele>214.0</ele><time>2026-04-04T15:15:04Z</time></trkpt><trkpt lat="44.739241893697624" lon="7.987299330223106"><ele>213.0</ele><time>2026-04-04T15:15:05Z</time></trkpt><trkpt lat="44.739197618218725" lon="7.98743156405412"><ele>212.0</ele><time>2026-04-04T15:15:06Z</time></trkpt><trkpt lat="44.73915534936525" lon="7.987561848157797"><ele>212.00000000000003</ele><time>2026-04-04T15:15:07Z</time></trkpt><trkpt lat="44.73911626913882" lon="7.987686239097603"><ele>212.0</ele><time>2026-04-04T15:15:08Z</time></trkpt><trkpt lat="44.73908047276904" lon="7.987810656783274"><ele>212.0</ele><time>2026-04-04T15:15:09Z</time></trkpt><trkpt lat="44.73904337237425" lon="7.987933689059095"><ele>212.0</ele><time>2026-04-04T15:15:10Z</time></trkpt><trkpt lat="44.7390136050163" lon="7.988034307403004"><ele>212.00000000000003</ele><time>2026-04-04T15:15:11Z</time></trkpt><trkpt lat="44.73898495764762" lon="7.9881234696081425"><ele>212.0</ele><time>2026-04-04T15:15:12Z</time></trkpt><trkpt lat="44.73893164299179" lon="7.988259112736446"><ele>211.57142857142858</ele><time>2026-04-04T15:15:14Z</time></trkpt><trkpt lat="44.738899102287476" lon="7.988344468098953"><ele>211.14285714285714</ele><time>2026-04-04T15:15:19Z</time></trkpt><trkpt lat="44.73894939650922" lon="7.98846722505503"><ele>210.71428571428572</ele><time>2026-04-04T15:15:21Z</time></trkpt><trkpt lat="44.73901301055943" lon="7.988508867385698"><ele>210.28571428571428</ele><time>2026-04-04T15:15:22Z</time></trkpt><trkpt lat="44.739071684944" lon="7.988546425413966"><ele>209.85714285714283</ele><time>2026-04-04T15:15:23Z</time></trkpt><trkpt lat="44.73913627838455" lon="7.988596010252654"><ele>209.42857142857142</ele><time>2026-04-04T15:15:24Z</time></trkpt><trkpt lat="44.739192699166914" lon="7.988644779089246"><ele>209.0</ele><time>2026-04-04T15:15:25Z</time></trkpt><trkpt lat="44.73926415263035" lon="7.988755727124548"><ele>209.00000000000003</ele><time>2026-04-04T15:15:27Z</time></trkpt><trkpt lat="44.739285891750136" lon="7.9889391712331195"><ele>209.0</ele><time>2026-04-04T15:15:29Z</time></trkpt><trkpt lat="44.739292548186384" lon="7.989051106463403"><ele>209.0</ele><time>2026-04-04T15:15:30Z</time></trkpt><trkpt lat="44.739302749129884" lon="7.989153586267308"><ele>209.0</ele><time>2026-04-04T15:15:31Z</time></trkpt><trkpt lat="44.73931189349359" lon="7.989256370794943"><ele>209.00000000000003</ele><time>2026-04-04T15:15:32Z</time></trkpt><trkpt lat="44.739326833690896" lon="7.98935406399396"><ele>209.0</ele><time>2026-04-04T15:15:33Z</time></trkpt><trkpt lat="44.739353971771926" lon="7.989447479122275"><ele>208.71428571428572</ele><time>2026-04-04T15:15:34Z</time></trkpt><trkpt lat="44.739390049987065" lon="7.989533473935473"><ele>208.42857142857142</ele><time>2026-04-04T15:15:35Z</time></trkpt><trkpt lat="44.73942842263388" lon="7.98961301907869"><ele>208.14285714285717</ele><time>2026-04-04T15:15:36Z</time></trkpt><trkpt lat="44.73947121269541" lon="7.989691523418757"><ele>207.85714285714286</ele><time>2026-04-04T15:15:37Z</time></trkpt><trkpt lat="44.739518183755344" lon="7.989763696823349"><ele>207.57142857142858</ele><time>2026-04-04T15:15:38Z</time></trkpt><trkpt lat="44.73956996852645" lon="7.989828531272417"><ele>207.2857142857143</ele><time>2026-04-04T15:15:39Z</time></trkpt><trkpt lat="44.739619299661236" lon="7.989889840034362"><ele>207.0</ele><time>2026-04-04T15:15:40Z</time></trkpt><trkpt lat="44.739664535364305" lon="7.989959028784112"><ele>206.8</ele><time>2026-04-04T15:15:41Z</time></trkpt><trkpt lat="44.739732504268915" lon="7.990099156173494"><ele>206.6</ele><time>2026-04-04T15:15:42.996Z</time></trkpt><trkpt lat="44.73977050681534" lon="7.990255530391861"><ele>206.4</ele><time>2026-04-04T15:15:44.996Z</time></trkpt><trkpt lat="44.739802219422025" lon="7.990393224829687"><ele>206.20000000000002</ele><time>2026-04-04T15:15:46.997Z</time></trkpt><trkpt lat="44.739810480859774" lon="7.990482356529992"><ele>206.0</ele><time>2026-04-04T15:15:48.997Z</time></trkpt><trkpt lat="44.739790419157785" lon="7.990567723446422"><ele>206.0</ele><time>2026-04-04T15:15:50.997Z</time></trkpt><trkpt lat="44.73973275879399" lon="7.990676878873653"><ele>206.0</ele><time>2026-04-04T15:15:52.997Z</time></trkpt><trkpt lat="44.739669582206815" lon="7.990762353430646"><ele>206.0</ele><time>2026-04-04T15:15:54.997Z</time></trkpt><trkpt lat="44.739577994454905" lon="7.990877434381867"><ele>205.0</ele><time>2026-04-04T15:15:56.997Z</time></trkpt><trkpt lat="44.739534287074946" lon="7.990950921566023"><ele>205.0</ele><time>2026-04-04T15:15:57.998Z</time></trkpt><trkpt lat="44.73949711531297" lon="7.991026691215086"><ele>205.0</ele><time>2026-04-04T15:15:58.998Z</time></trkpt><trkpt lat="44.73949711531297" lon="7.991026691215086"><ele>205.0</ele><time>2026-04-04T15:15:58.998Z</time></trkpt><trkpt lat="44.73949711531297" lon="7.991026691215086"><ele>205.0</ele><time>2026-04-04T15:15:58.998Z</time></trkpt><trkpt lat="44.73949711531297" lon="7.991026691215086"><ele>205.0</ele><time>2026-04-04T15:15:58.998Z</time></trkpt><trkpt lat="44.73949711531297" lon="7.991026691215086"><ele>205.0</ele><time>2026-04-04T15:15:58.998Z</time></trkpt><trkpt lat="44.73949711531297" lon="7.991026691215086"><ele>205.0</ele><time>2026-04-04T15:15:58.998Z</time></trkpt><trkpt lat="44.73949711531297" lon="7.991026691215086"><ele>205.0</ele><time>2026-04-04T15:15:58.998Z</time></trkpt><trkpt lat="44.73949711531297" lon="7.991026691215086"><ele>205.0</ele><time>2026-04-04T15:15:58.998Z</time></trkpt><trkpt lat="44.73949711531297" lon="7.991026691215086"><ele>205.0</ele><time>2026-04-04T15:15:58.998Z</time></trkpt><trkpt lat="44.73949711531297" lon="7.991026691215086"><ele>205.0</ele><time>2026-04-04T15:15:58.998Z</time></trkpt><trkpt lat="44.73949711531297" lon="7.991026691215086"><ele>205.0</ele><time>2026-04-04T15:15:58.998Z</time></trkpt><trkpt lat="44.73949711531297" lon="7.991026691215086"><ele>205.0</ele><time>2026-04-04T15:15:58.998Z</time></trkpt><trkpt lat="44.73949711531297" lon="7.991026691215086"><ele>205.0</ele><time>2026-04-04T15:15:58.998Z</time></trkpt><trkpt lat="44.73949711531297" lon="7.991026691215086"><ele>205.0</ele><time>2026-04-04T15:15:58.998Z</time></trkpt><trkpt lat="44.73949711531297" lon="7.991026691215086"><ele>205.0</ele><time>2026-04-04T15:15:58.998Z</time></trkpt><trkpt lat="44.73949711531297" lon="7.991026691215086"><ele>205.0</ele><time>2026-04-04T15:15:58.998Z</time></trkpt></trkseg></trk></gpx>